Time;durP1;ratioP1;P1;durP2;ratioP2;P2;SDS_P1;SDS_P2;PMS_P1;PMS_P2;Temp;Humidity;BMP_temperature;BMP_pressure;BME280_temperature;BME280_humidity;BME280_pressure;Samples;Min_cycle;Max_cycle;Signal;HPM_P1;HPM_P2
2021/12/05 00:18:46;;;;;;;12.02;3.45;;;4.10;99.90;;;;;;5102611;28;20414;-81
2021/12/05 00:24:07;;;;;;;10.07;2.80;;;4.10;99.90;;;;;;5103943;28;20215;-80
2021/12/05 00:26:35;;;;;;;12.20;2.30;;;4.20;99.90;;;;;;5106885;28;20480;-80
2021/12/05 00:29:17;;;;;;;8.00;2.73;;;4.30;99.90;;;;;;5107856;28;20476;-81
2021/12/05 00:32:01;;;;;;;10.80;3.00;;;4.30;99.90;;;;;;5106946;28;20205;-80
2021/12/05 00:34:47;;;;;;;10.33;2.57;;;4.20;99.90;;;;;;5107260;28;20446;-80
2021/12/05 00:40:39;;;;;;;7.23;2.20;;;4.20;99.90;;;;;;5057791;28;20426;-80
2021/12/05 01:11:13;;;;;;;7.93;2.33;;;4.60;99.90;;;;;;5094484;28;20489;-81
2021/12/05 01:13:55;;;;;;;10.63;1.87;;;4.60;99.90;;;;;;5106156;28;20449;-81
2021/12/05 01:16:26;;;;;;;5.50;2.00;;;4.70;99.90;;;;;;5107238;28;20235;-80
2021/12/05 01:18:54;;;;;;;6.00;2.10;;;4.60;99.90;;;;;;5108602;28;20609;-81
2021/12/05 01:21:24;;;;;;;4.63;1.93;;;4.60;99.90;;;;;;5107828;28;20258;-81
2021/12/05 01:24:00;;;;;;;9.00;2.43;;;4.60;99.90;;;;;;5105894;28;20469;-80
2021/12/05 01:26:32;;;;;;;13.13;2.50;;;4.60;99.90;;;;;;5104942;28;20656;-80
2021/12/05 01:29:11;;;;;;;5.57;2.00;;;4.80;99.90;;;;;;5104161;28;20441;-80
2021/12/05 01:31:55;;;;;;;8.57;2.65;;;4.70;99.90;;;;;;5103871;28;20793;-80
2021/12/05 01:37:23;;;;;;;8.63;2.63;;;4.80;99.90;;;;;;5104488;28;20197;-80
2021/12/05 01:46:14;;;;;;;7.53;2.00;;;4.90;99.90;;;;;;5090236;27;20477;-80
2021/12/05 01:54:43;;;;;;;8.10;2.43;;;4.60;99.90;;;;;;5106644;28;20924;-80
2021/12/05 02:00:21;;;;;;;4.97;1.57;;;4.70;99.90;;;;;;5107062;28;20542;-80
2021/12/05 02:07:38;;;;;;;6.40;2.00;;;4.60;99.90;;;;;;5108163;28;20473;-80
2021/12/05 02:11:58;;;;;;;7.77;2.00;;;4.60;99.90;;;;;;5107354;28;20208;-81
2021/12/05 02:34:21;;;;;;;6.87;1.80;;;4.60;99.90;;;;;;5100530;28;20438;-80
2021/12/05 02:37:14;;;;;;;4.77;1.97;;;4.70;99.90;;;;;;5113399;28;20471;-80
2021/12/05 02:39:54;;;;;;;5.47;1.97;;;4.60;99.90;;;;;;5112098;28;20473;-80
2021/12/05 02:42:29;;;;;;;10.43;2.27;;;4.60;99.90;;;;;;5110209;28;20448;-80
2021/12/05 02:44:58;;;;;;;8.50;1.80;;;4.60;99.90;;;;;;5110691;28;20473;-80
2021/12/05 02:47:29;;;;;;;4.13;1.40;;;4.60;99.90;;;;;;5110161;28;20553;-80
2021/12/05 02:50:01;;;;;;;5.53;2.13;;;4.60;99.90;;;;;;5109123;28;21012;-81
2021/12/05 02:52:32;;;;;;;5.27;1.53;;;4.70;99.90;;;;;;5108582;28;20430;-80
2021/12/05 02:55:12;;;;;;;5.03;1.93;;;4.60;99.90;;;;;;5108761;28;20817;-80
2021/12/05 02:57:53;;;;;;;5.40;2.10;;;4.60;99.90;;;;;;5103706;28;20579;-80
2021/12/05 03:00:35;;;;;;;9.23;2.20;;;4.60;99.90;;;;;;5107374;28;20265;-79
2021/12/05 03:03:02;;;;;;;2.83;1.83;;;4.60;99.90;;;;;;5107330;28;20469;-80
2021/12/05 03:05:30;;;;;;;8.80;2.50;;;4.60;99.90;;;;;;5107669;28;20481;-80
2021/12/05 03:08:01;;;;;;;3.50;1.73;;;4.50;99.90;;;;;;5109064;28;20453;-80
2021/12/05 03:10:30;;;;;;;4.53;1.90;;;4.50;99.90;;;;;;5107167;28;20448;-80
2021/12/05 03:13:03;;;;;;;7.47;2.13;;;4.60;99.90;;;;;;5107177;28;20470;-80
2021/12/05 03:15:30;;;;;;;4.53;2.07;;;4.70;99.90;;;;;;5106156;28;20453;-80
2021/12/05 03:18:07;;;;;;;6.53;3.13;;;4.60;99.90;;;;;;5108016;28;20433;-80
2021/12/05 03:20:35;;;;;;;4.87;2.27;;;4.60;99.90;;;;;;5107216;28;20452;-80
2021/12/05 03:23:07;;;;;;;5.03;2.33;;;4.50;99.90;;;;;;5107808;28;21035;-80
2021/12/05 03:25:35;;;;;;;5.63;2.27;;;4.60;99.90;;;;;;5108080;28;20493;-80
2021/12/05 03:28:04;;;;;;;7.00;2.30;;;4.60;99.90;;;;;;5108596;28;20437;-80
2021/12/05 03:30:33;;;;;;;4.70;2.33;;;4.50;99.90;;;;;;5108716;28;20442;-80
2021/12/05 03:33:01;;;;;;;8.03;3.17;;;4.60;99.90;;;;;;5109461;28;20453;-79
2021/12/05 03:35:30;;;;;;;5.00;2.60;;;4.50;99.90;;;;;;5109177;28;20464;-80
2021/12/05 03:38:00;;;;;;;4.87;2.60;;;4.50;99.90;;;;;;5109590;28;20452;-80
2021/12/05 03:40:33;;;;;;;4.83;2.80;;;4.60;99.90;;;;;;5108255;28;20440;-80
2021/12/05 03:43:05;;;;;;;8.50;3.10;;;4.60;99.90;;;;;;5109234;28;20481;-80
2021/12/05 03:45:40;;;;;;;3.93;2.40;;;4.40;99.90;;;;;;5106414;28;20478;-80
2021/12/05 03:48:11;;;;;;;4.67;2.90;;;4.50;99.90;;;;;;5106459;28;20501;-81
2021/12/05 03:50:39;;;;;;;3.67;2.43;;;4.50;99.90;;;;;;5106859;28;20450;-81
2021/12/05 03:53:09;;;;;;;5.13;3.50;;;4.50;99.90;;;;;;5105807;28;20461;-80
2021/12/05 03:55:41;;;;;;;3.57;3.17;;;4.60;99.90;;;;;;5105507;28;20446;-80
2021/12/05 03:58:09;;;;;;;7.05;3.67;;;4.60;99.90;;;;;;5103499;28;20422;-81
2021/12/05 04:00:40;;;;;;;6.37;3.50;;;4.70;99.90;;;;;;5105058;28;20257;-80
2021/12/05 04:03:10;;;;;;;3.83;3.53;;;4.60;99.90;;;;;;5105435;28;20477;-80
2021/12/05 04:05:37;;;;;;;7.00;3.90;;;4.60;99.90;;;;;;5106200;28;20219;-80
2021/12/05 04:08:10;;;;;;;7.70;3.90;;;4.60;99.90;;;;;;5107095;28;20438;-80
2021/12/05 04:10:41;;;;;;;8.37;4.03;;;4.60;99.90;;;;;;5105813;28;20434;-80
2021/12/05 04:13:08;;;;;;;6.27;4.37;;;4.60;99.90;;;;;;5104518;28;20528;-80
2021/12/05 04:15:35;;;;;;;9.00;4.43;;;4.60;99.90;;;;;;5106344;28;20486;-80
2021/12/05 04:18:03;;;;;;;6.17;4.40;;;4.70;99.90;;;;;;5108133;28;20447;-81
2021/12/05 04:20:30;;;;;;;7.70;5.10;;;4.60;99.90;;;;;;5108249;28;20441;-81
2021/12/05 04:22:58;;;;;;;8.53;5.23;;;4.60;99.90;;;;;;5110013;28;20468;-80
2021/12/05 04:25:26;;;;;;;5.80;4.47;;;4.50;99.90;;;;;;5110279;28;20220;-80
2021/12/05 04:27:57;;;;;;;7.87;4.50;;;4.50;99.90;;;;;;5105259;28;20804;-80
2021/12/05 04:30:25;;;;;;;8.13;4.73;;;4.60;99.90;;;;;;5104917;28;20430;-81
2021/12/05 04:32:52;;;;;;;6.07;4.47;;;4.60;99.90;;;;;;5104274;28;20446;-80
2021/12/05 04:35:19;;;;;;;4.57;4.10;;;4.70;99.90;;;;;;5105480;28;20456;-81
2021/12/05 04:37:46;;;;;;;7.33;3.77;;;4.70;99.90;;;;;;5105477;28;20540;-79
2021/12/05 04:40:15;;;;;;;5.57;3.40;;;4.60;99.90;;;;;;5105572;28;20464;-80
2021/12/05 04:42:42;;;;;;;5.87;3.23;;;4.50;99.90;;;;;;5109834;28;20429;-80
2021/12/05 04:45:15;;;;;;;6.07;2.87;;;4.60;99.90;;;;;;5111963;28;20481;-80
2021/12/05 04:47:46;;;;;;;10.80;3.70;;;4.50;99.90;;;;;;5110535;28;20520;-80
2021/12/05 04:50:15;;;;;;;7.13;3.70;;;4.60;99.90;;;;;;5109622;28;20441;-79
2021/12/05 04:52:42;;;;;;;5.30;2.83;;;4.50;99.90;;;;;;5110144;28;20437;-80
2021/12/05 04:55:11;;;;;;;4.90;2.90;;;4.50;99.90;;;;;;5108168;28;20430;-80
2021/12/05 04:57:39;;;;;;;4.37;2.67;;;4.60;99.90;;;;;;5106859;28;20426;-80
2021/12/05 05:00:08;;;;;;;3.40;2.37;;;4.60;99.90;;;;;;5106226;28;20426;-80
2021/12/05 05:02:36;;;;;;;4.23;2.70;;;4.50;99.90;;;;;;5104468;28;20730;-81
2021/12/05 05:05:03;;;;;;;6.70;2.80;;;4.50;99.90;;;;;;5105907;28;20229;-81
2021/12/05 05:07:30;;;;;;;5.53;2.47;;;4.50;99.90;;;;;;5106408;28;20881;-81
2021/12/05 05:10:00;;;;;;;3.00;2.37;;;4.60;99.90;;;;;;5107599;28;20472;-81
2021/12/05 05:12:27;;;;;;;4.17;2.40;;;4.50;99.90;;;;;;5111050;28;20201;-81
2021/12/05 05:14:55;;;;;;;4.33;2.43;;;4.60;99.90;;;;;;5111592;28;20438;-81
2021/12/05 05:17:23;;;;;;;5.87;2.50;;;4.50;99.90;;;;;;5111494;28;20434;-80
2021/12/05 05:19:57;;;;;;;7.63;2.37;;;4.40;99.90;;;;;;5110538;28;20448;-81
2021/12/05 05:22:34;;;;;;;5.53;2.67;;;4.50;99.90;;;;;;5112890;28;20229;-81
2021/12/05 05:25:52;;;;;;;6.10;2.50;;;4.60;99.90;;;;;;5112072;28;20316;-81
2021/12/05 05:28:51;;;;;;;3.47;2.43;;;4.60;99.90;;;;;;5112408;28;20231;-81
2021/12/05 05:39:53;;;;;;;4.90;2.70;;;4.60;99.90;;;;;;5101824;28;20187;-80
2021/12/05 05:45:28;;;;;;;5.03;3.07;;;4.80;99.90;;;;;;5102708;28;20530;-81
2021/12/05 05:50:38;;;;;;;5.77;3.30;;;4.70;99.90;;;;;;5101408;28;20193;-80
2021/12/05 05:53:07;;;;;;;6.30;3.90;;;4.70;99.90;;;;;;5100738;28;20221;-80
2021/12/05 05:55:37;;;;;;;5.13;3.80;;;4.70;99.90;;;;;;5102473;28;20193;-81
2021/12/05 05:58:09;;;;;;;5.93;4.23;;;4.70;99.90;;;;;;5102559;28;20205;-80
2021/12/05 06:00:50;;;;;;;7.63;4.80;;;4.80;99.90;;;;;;5100466;28;20265;-80
2021/12/05 06:03:21;;;;;;;6.07;4.30;;;4.90;99.90;;;;;;5099206;28;20260;-80
2021/12/05 06:05:50;;;;;;;7.03;4.57;;;4.80;99.90;;;;;;5081447;28;20742;-80
2021/12/05 06:08:23;;;;;;;5.50;4.73;;;4.90;99.90;;;;;;5081255;28;20201;-81
2021/12/05 06:10:50;;;;;;;6.37;5.17;;;4.80;99.90;;;;;;5079677;28;20210;-80
2021/12/05 06:13:18;;;;;;;6.97;4.97;;;4.80;99.90;;;;;;5078733;28;20240;-80
2021/12/05 06:15:46;;;;;;;9.17;5.40;;;4.80;99.90;;;;;;5080186;28;20214;-80
2021/12/05 06:18:13;;;;;;;9.50;5.50;;;4.90;99.90;;;;;;5081164;28;20205;-80
2021/12/05 06:20:40;;;;;;;7.47;5.70;;;5.00;99.90;;;;;;5079609;28;20202;-80
2021/12/05 06:23:09;;;;;;;6.30;5.40;;;5.00;99.90;;;;;;5079524;28;20578;-80
2021/12/05 06:25:41;;;;;;;11.93;5.60;;;5.10;99.90;;;;;;5079819;28;20221;-80
2021/12/05 06:28:11;;;;;;;7.67;5.67;;;5.00;99.90;;;;;;5080274;28;20241;-80
2021/12/05 06:30:48;;;;;;;8.23;5.33;;;5.00;99.90;;;;;;5079102;28;20259;-80
2021/12/05 06:47:26;;;;;;;7.10;6.07;;;4.80;99.90;;;;;;5071620;28;20204;-80
2021/12/05 06:49:56;;;;;;;7.27;6.53;;;4.80;99.90;;;;;;5080443;28;20201;-81
2021/12/05 06:52:23;;;;;;;7.27;6.60;;;4.80;99.90;;;;;;5081136;28;20186;-80
2021/12/05 06:54:50;;;;;;;7.53;6.80;;;4.80;99.90;;;;;;5080520;28;20683;-81
2021/12/05 06:57:20;;;;;;;8.93;6.17;;;4.80;99.90;;;;;;5080175;28;20251;-80
2021/12/05 06:59:49;;;;;;;6.43;5.90;;;4.80;99.90;;;;;;5079841;28;20218;-81
2021/12/05 07:02:18;;;;;;;6.13;5.53;;;5.00;99.90;;;;;;5080287;28;20214;-80
2021/12/05 07:07:36;;;;;;;7.95;6.88;;;4.70;99.90;;;;;;5073748;28;20907;-80
2021/12/05 07:10:07;;;;;;;9.00;6.40;;;4.80;99.90;;;;;;5077844;28;20193;-80
2021/12/05 07:13:14;;;;;;;7.07;6.00;;;4.90;99.90;;;;;;5079208;28;20209;-80
2021/12/05 07:15:42;;;;;;;6.73;6.03;;;4.90;99.90;;;;;;5079047;28;20210;-80
2021/12/05 07:21:24;;;;;;;6.80;6.00;;;4.90;99.90;;;;;;5079637;28;20284;-81
2021/12/05 07:24:03;;;;;;;8.57;5.90;;;4.90;99.90;;;;;;5080043;28;20205;-81
2021/12/05 07:26:47;;;;;;;6.70;5.93;;;4.80;99.90;;;;;;5079459;28;20332;-80
2021/12/05 07:51:40;;;;;;;8.10;6.20;;;4.90;99.90;;;;;;5057325;28;20186;-83
2021/12/05 08:30:07;;;;;;;5.77;4.73;;;4.70;99.90;;;;;;5054136;28;20201;-82
2021/12/05 08:33:13;;;;;;;5.13;4.73;;;4.80;99.90;;;;;;5055810;28;20203;-82
2021/12/05 11:13:48;;;;;;;8.07;7.37;;;6.70;99.90;;;;;;5140077;23;20718;-84
2021/12/05 12:42:44;;;;;;;8.43;7.60;;;6.70;99.90;;;;;;4301214;26;20293;-90
2021/12/05 12:45:18;;;;;;;5.53;5.13;;;6.80;99.90;;;;;;5037276;28;20233;-90
2021/12/05 12:47:51;;;;;;;5.90;5.40;;;6.90;99.90;;;;;;5037105;28;20235;-90
2021/12/05 12:56:22;;;;;;;5.93;5.53;;;7.00;99.90;;;;;;5109590;23;20265;-87
2021/12/05 12:58:54;;;;;;;6.07;5.57;;;7.30;99.90;;;;;;5037802;28;20207;-89
2021/12/05 13:01:44;;;;;;;6.17;5.43;;;7.10;99.90;;;;;;5037644;28;20230;-86
2021/12/05 13:13:25;;;;;;;5.90;5.40;;;6.90;99.90;;;;;;5002446;28;20200;-87
2021/12/05 13:15:59;;;;;;;5.80;5.40;;;6.80;99.90;;;;;;4997967;28;20657;-86
2021/12/05 13:26:03;;;;;;;6.73;6.23;;;7.00;99.90;;;;;;5001314;28;20200;-87
2021/12/05 14:01:24;;;;;;;6.67;6.13;;;6.50;99.90;;;;;;5073995;23;20240;-84
2021/12/05 14:04:35;;;;;;;9.57;8.47;;;6.60;99.90;;;;;;5070704;23;20302;-84
2021/12/05 14:12:58;;;;;;;6.77;6.27;;;6.50;99.90;;;;;;5057335;28;20199;-85
2021/12/05 14:15:48;;;;;;;6.50;6.00;;;6.40;99.90;;;;;;5059024;28;20196;-85
2021/12/05 14:54:04;;;;;;;6.03;5.50;;;7.30;99.90;;;;;;5816611;23;20233;-88
2021/12/05 17:24:43;;;;;;;25.33;19.30;;;6.50;99.90;;;;;;4868554;29;20209;-81
2021/12/05 18:52:27;;;;;;;30.47;21.60;;;6.10;99.90;;;;;;4961498;28;20188;-82
2021/12/05 18:58:13;;;;;;;24.80;21.23;;;5.90;99.90;;;;;;4999000;28;20209;-81
2021/12/05 19:07:17;;;;;;;24.13;21.43;;;5.80;99.90;;;;;;4999822;28;20230;-81
2021/12/05 19:23:29;;;;;;;32.67;25.07;;;5.80;99.90;;;;;;4999601;28;20220;-82
2021/12/05 19:28:59;;;;;;;28.70;24.30;;;5.70;99.90;;;;;;4995549;28;20197;-78
2021/12/05 21:50:34;;;;;;;28.50;22.47;;;5.90;99.90;;;;;;5493755;23;20238;-83
2021/12/05 22:03:46;;;;;;;26.60;21.53;;;5.40;99.90;;;;;;5039437;28;20250;-83
2021/12/05 22:07:01;;;;;;;29.10;20.93;;;5.70;99.90;;;;;;5039141;28;20187;-82
2021/12/05 22:13:16;;;;;;;30.13;21.07;;;5.50;99.90;;;;;;5039207;28;20192;-82
2021/12/05 22:25:54;;;;;;;31.63;24.53;;;5.70;99.90;;;;;;5039628;28;20215;-84
2021/12/05 22:28:21;;;;;;;29.77;22.37;;;5.80;99.90;;;;;;5023911;28;20243;-78
2021/12/05 22:30:49;;;;;;;28.67;22.67;;;5.60;99.90;;;;;;5018143;28;20290;-78
2021/12/05 22:33:16;;;;;;;32.40;24.67;;;5.70;99.90;;;;;;5017618;28;20204;-78
2021/12/05 22:35:44;;;;;;;31.97;23.67;;;5.60;99.90;;;;;;5017290;28;20195;-78
2021/12/05 22:38:11;;;;;;;33.92;29.40;;;5.50;99.90;;;;;;5016368;28;20444;-78
2021/12/05 22:40:43;;;;;;;31.43;25.53;;;5.50;99.90;;;;;;5017072;28;20686;-78
2021/12/05 22:43:09;;;;;;;35.97;24.70;;;5.60;99.90;;;;;;5017572;28;20199;-78
2021/12/05 22:45:36;;;;;;;31.50;24.53;;;5.70;99.90;;;;;;5016711;28;20203;-78
2021/12/05 22:48:04;;;;;;;28.83;22.97;;;5.90;99.90;;;;;;5016371;28;20228;-78
2021/12/05 22:50:31;;;;;;;31.07;24.60;;;6.00;99.90;;;;;;5017710;28;20212;-78
2021/12/05 22:52:58;;;;;;;28.63;22.57;;;5.80;99.90;;;;;;5017520;28;20254;-78
2021/12/05 22:55:27;;;;;;;32.40;23.50;;;5.60;99.90;;;;;;5017448;28;20207;-78
2021/12/05 22:57:55;;;;;;;32.17;24.10;;;5.70;99.90;;;;;;5016976;28;20204;-78
2021/12/05 23:00:43;;;;;;;29.73;23.03;;;5.80;99.90;;;;;;5016624;28;20206;-78
2021/12/05 23:03:15;;;;;;;27.93;23.27;;;5.90;99.90;;;;;;5015425;28;20215;-77
2021/12/05 23:05:42;;;;;;;31.37;23.67;;;5.90;99.90;;;;;;5016092;28;20295;-78
2021/12/05 23:08:11;;;;;;;29.50;23.30;;;6.10;99.90;;;;;;5017030;28;20224;-78
2021/12/05 23:10:39;;;;;;;29.47;23.10;;;6.20;99.90;;;;;;5016420;28;20208;-78
2021/12/05 23:13:07;;;;;;;29.13;23.17;;;6.20;99.90;;;;;;5016028;28;20208;-78
2021/12/05 23:15:35;;;;;;;31.90;23.50;;;6.20;99.90;;;;;;5016050;28;20208;-78
2021/12/05 23:18:02;;;;;;;28.17;23.60;;;6.10;99.90;;;;;;5016210;28;20199;-78
2021/12/05 23:20:29;;;;;;;29.40;23.43;;;5.90;99.90;;;;;;5016282;28;20681;-79
2021/12/05 23:22:56;;;;;;;26.90;23.13;;;5.90;99.90;;;;;;5016835;28;20199;-78
2021/12/05 23:25:25;;;;;;;31.07;23.23;;;5.90;99.90;;;;;;5017398;28;20204;-79
2021/12/05 23:27:52;;;;;;;28.90;22.67;;;5.70;99.90;;;;;;5015234;28;20216;-79
2021/12/05 23:30:23;;;;;;;27.13;22.17;;;5.50;99.90;;;;;;5014880;28;20204;-78
2021/12/05 23:32:51;;;;;;;29.40;22.07;;;5.50;99.90;;;;;;5015132;28;20199;-78
2021/12/05 23:35:20;;;;;;;29.83;22.67;;;5.60;99.90;;;;;;5014553;28;20603;-78
2021/12/05 23:37:48;;;;;;;28.90;21.97;;;5.70;99.90;;;;;;5014775;28;20250;-78
2021/12/05 23:40:16;;;;;;;26.83;21.60;;;5.70;99.90;;;;;;5014777;28;20203;-78
2021/12/05 23:42:42;;;;;;;26.70;22.00;;;5.80;99.90;;;;;;5014878;28;20582;-79
2021/12/05 23:45:10;;;;;;;29.60;22.50;;;5.90;99.90;;;;;;5014598;28;20195;-78
2021/12/05 23:47:39;;;;;;;31.00;22.87;;;6.00;99.90;;;;;;5014338;28;20220;-78
2021/12/05 23:50:08;;;;;;;27.87;22.03;;;6.10;99.90;;;;;;5014979;28;20200;-78
2021/12/05 23:52:36;;;;;;;30.45;26.90;;;5.80;99.90;;;;;;5014075;28;20777;-78
2021/12/05 23:55:05;;;;;;;28.47;22.87;;;6.00;99.90;;;;;;5014484;28;20226;-78
2021/12/05 23:57:32;;;;;;;24.80;21.83;;;6.10;99.90;;;;;;5014411;28;20196;-78
2021/12/05 23:59:59;;;;;;;25.57;21.07;;;6.20;99.90;;;;;;5014311;28;20211;-79
